Terminal Aerodrome Forecast
Issued by NWS Pueblo, CO

Home | Current Version | Previous Version | Text Only | Print | Product List | Glossary On
Versions: 1 2 3 4 5 6 7 8 9 10 11 12 13 14 15 16 17
000
FTUS45 KPUB 272328
TAFPUB
TAF
KPUB 272328Z 2800/2824 23025G35KT P6SM SCT200
     FM280200 26012KT P6SM SCT200
     FM280600 28010KT P6SM SCT200
     FM281700 16010G20KT P6SM VCSH BKN060
     FM282300 35015G25KT P6SM SCT060 BKN110=

USA.gov is the U.S. government's official web portal to all federal, state and local government web resources and services.